Observation data for Northfield on 07/09/2018      Previous  Date  Next       Current Mesonet Observations  Soil Data  Daily Summary Page  Observations in Plain Language
KNOR 090500Z 16006KT 24/17 A3016 RMK A01 T02410172  RH  067%=      5-min Rain = 0
KNOR 090505Z 17006KT 24/17 A3016 RMK A01 T02390173  RH  069%=      5-min Rain = 0
KNOR 090510Z 17006KT 24/17 A3016 RMK A01 T02380173  RH  069%=      5-min Rain = 0
KNOR 090515Z 16005KT 24/17 A3016 RMK A01 T02380172  RH  068%=      5-min Rain = 0
KNOR 090520Z 17006KT 24/17 A3016 RMK A01 T02380173  RH  069%=      5-min Rain = 0
KNOR 090525Z 17006KT 24/17 A3016 RMK A01 T02360174  RH  070%=      5-min Rain = 0
KNOR 090530Z 18006KT 24/17 A3016 RMK A01 T02350174  RH  070%=      5-min Rain = 0
KNOR 090535Z 18006KT 24/17 A3016 RMK A01 T02370172  RH  068%=      5-min Rain = 0
KNOR 090540Z 17005KT 24/17 A3016 RMK A01 T02380172  RH  068%=      5-min Rain = 0
KNOR 090545Z 17006KT 24/17 A3016 RMK A01 T02380173  RH  069%=      5-min Rain = 0
KNOR 090550Z 17006KT 24/17 A3016 RMK A01 T02370174  RH  070%=      5-min Rain = 0
KNOR 090555Z 17005KT 23/17 A3016 RMK A01 T02340174  RH  071%=      5-min Rain = 0
KNOR 090600Z 17005KT 23/17 A3016 RMK A01 T02340173  RH  070%=      5-min Rain = 0
KNOR 090605Z 17005KT 24/17 A3016 RMK A01 T02350172  RH  070%=      5-min Rain = 0
KNOR 090610Z 17005KT 24/17 A3016 RMK A01 T02350172  RH  069%=      5-min Rain = 0
KNOR 090615Z 17005KT 24/17 A3016 RMK A01 T02370171  RH  068%=      5-min Rain = 0
KNOR 090620Z 17004KT 24/17 A3016 RMK A01 T02360172  RH  069%=      5-min Rain = 0
KNOR 090625Z 19003KT 24/17 A3016 RMK A01 T02360173  RH  069%=      5-min Rain = 0
KNOR 090630Z 28002KT 23/18 A3016 RMK A01 T02290177  RH  074%=      5-min Rain = 0
KNOR 090635Z 26003KT 22/18 A3016 RMK A01 T02210178  RH  078%=      5-min Rain = 0
KNOR 090640Z 26003KT 22/18 A3016 RMK A01 T02180178  RH  080%=      5-min Rain = 0
KNOR 090645Z 26002KT 22/18 A3016 RMK A01 T02190175  RH  078%=      5-min Rain = 0
KNOR 090650Z 25002KT 22/18 A3016 RMK A01 T02240175  RH  076%=      5-min Rain = 0
KNOR 090655Z 25002KT 23/17 A3016 RMK A01 T02260174  RH  074%=      5-min Rain = 0
KNOR 090700Z 25001KT 23/17 A3017 RMK A01 T02260172  RH  073%=      5-min Rain = 0
KNOR 090705Z 13004KT 23/17 A3016 RMK A01 T02340171  RH  069%=      5-min Rain = 0
KNOR 090710Z 13005KT 24/17 A3017 RMK A01 T02430171  RH  065%=      5-min Rain = 0
KNOR 090715Z 12005KT 24/17 A3017 RMK A01 T02370171  RH  068%=      5-min Rain = 0
KNOR 090720Z 08006KT 24/17 A3017 RMK A01 T02350171  RH  069%=      5-min Rain = 0
KNOR 090725Z 06005KT 23/17 A3017 RMK A01 T02290174  RH  073%=      5-min Rain = 0
KNOR 090730Z 05005KT 23/18 A3017 RMK A01 T02260175  RH  075%=      5-min Rain = 0
KNOR 090735Z 05004KT 22/18 A3017 RMK A01 T02240176  RH  076%=      5-min Rain = 0
KNOR 090740Z 05004KT 22/18 A3016 RMK A01 T02240176  RH  076%=      5-min Rain = 0
KNOR 090745Z 05003KT 23/18 A3016 RMK A01 T02250175  RH  075%=      5-min Rain = 0
KNOR 090750Z 06003KT 23/18 A3016 RMK A01 T02260175  RH  074%=      5-min Rain = 0
KNOR 090755Z 05001KT 23/18 A3016 RMK A01 T02250178  RH  077%=      5-min Rain = 0
KNOR 090800Z 26001KT 22/18 A3016 RMK A01 T02150182  RH  084%=      5-min Rain = 0
KNOR 090805Z 00000KT 21/18 A3016 RMK A01 T02140182  RH  084%=      5-min Rain = 0
KNOR 090810Z 09000KT 21/18 A3016 RMK A01 T02140181  RH  083%=      5-min Rain = 0
KNOR 090815Z 08002KT 22/18 A3016 RMK A01 T02180180  RH  081%=      5-min Rain = 0
KNOR 090820Z 08003KT 22/18 A3016 RMK A01 T02220177  RH  078%=      5-min Rain = 0
KNOR 090825Z 08003KT 23/18 A3016 RMK A01 T02270175  RH  074%=      5-min Rain = 0
KNOR 090830Z 09003KT 23/18 A3017 RMK A01 T02260176  RH  075%=      5-min Rain = 0
KNOR 090835Z 10004KT 23/18 A3017 RMK A01 T02280175  RH  074%=      5-min Rain = 0
KNOR 090840Z 12004KT 23/18 A3017 RMK A01 T02310177  RH  073%=      5-min Rain = 0
KNOR 090845Z 13002KT 23/18 A3017 RMK A01 T02250181  RH  078%=      5-min Rain = 0
KNOR 090850Z 15002KT 22/18 A3017 RMK A01 T02210183  RH  081%=      5-min Rain = 0
KNOR 090855Z 17001KT 22/18 A3017 RMK A01 T02160184  RH  084%=      5-min Rain = 0
KNOR 090900Z 21001KT 21/18 A3017 RMK A01 T02140182  RH  084%=      5-min Rain = 0
KNOR 090905Z 22001KT 22/18 A3017 RMK A01 T02150182  RH  083%=      5-min Rain = 0
KNOR 090910Z 25001KT 22/18 A3017 RMK A01 T02150180  RH  082%=      5-min Rain = 0
KNOR 090915Z 25001KT 22/18 A3017 RMK A01 T02150181  RH  083%=      5-min Rain = 0
KNOR 090920Z 29002KT 21/18 A3017 RMK A01 T02140182  RH  084%=      5-min Rain = 0
KNOR 090925Z 30003KT 21/18 A3017 RMK A01 T02130180  RH  083%=      5-min Rain = 0
KNOR 090930Z 28001KT 21/18 A3017 RMK A01 T02120181  RH  085%=      5-min Rain = 0
KNOR 090935Z 19001KT 21/18 A3017 RMK A01 T02110179  RH  084%=      5-min Rain = 0
KNOR 090940Z 19001KT 21/18 A3017 RMK A01 T02130179  RH  083%=      5-min Rain = 0
KNOR 090945Z 18001KT 22/18 A3017 RMK A01 T02150181  RH  083%=      5-min Rain = 0
KNOR 090950Z 19001KT 22/18 A3017 RMK A01 T02160183  RH  083%=      5-min Rain = 0
KNOR 090955Z 21002KT 22/18 A3017 RMK A01 T02170184  RH  084%=      5-min Rain = 0
KNOR 091000Z 22002KT 22/18 A3017 RMK A01 T02180183  RH  083%=      5-min Rain = 0
KNOR 091005Z 24002KT 22/18 A3017 RMK A01 T02180182  RH  082%=      5-min Rain = 0
KNOR 091010Z 25001KT 22/18 A3018 RMK A01 T02160184  RH  084%=      5-min Rain = 0
KNOR 091015Z 23001KT 22/19 A3018 RMK A01 T02150186  RH  086%=      5-min Rain = 0
KNOR 091020Z 19001KT 21/18 A3018 RMK A01 T02140180  RH  083%=      5-min Rain = 0
KNOR 091025Z 19001KT 22/18 A3018 RMK A01 T02170184  RH  083%=      5-min Rain = 0
KNOR 091030Z 18002KT 22/18 A3018 RMK A01 T02170179  RH  081%=      5-min Rain = 0
KNOR 091035Z 18002KT 22/18 A3018 RMK A01 T02220181  RH  080%=      5-min Rain = 0
KNOR 091040Z 17002KT 22/18 A3018 RMK A01 T02230182  RH  080%=      5-min Rain = 0
KNOR 091045Z 18002KT 22/18 A3018 RMK A01 T02230183  RH  080%=      5-min Rain = 0
KNOR 091050Z 21001KT 22/19 A3018 RMK A01 T02200188  RH  084%=      5-min Rain = 0
KNOR 091055Z 24001KT 22/19 A3018 RMK A01 T02170188  RH  086%=      5-min Rain = 0
KNOR 091100Z 25000KT 22/19 A3019 RMK A01 T02150188  RH  087%=      5-min Rain = 0
KNOR 091105Z 22000KT 22/19 A3019 RMK A01 T02150186  RH  086%=      5-min Rain = 0
KNOR 091110Z 21001KT 22/18 A3019 RMK A01 T02150182  RH  084%=      5-min Rain = 0
KNOR 091115Z 19001KT 22/19 A3019 RMK A01 T02170185  RH  084%=      5-min Rain = 0
KNOR 091120Z 20002KT 22/19 A3019 RMK A01 T02170186  RH  085%=      5-min Rain = 0
KNOR 091125Z 20002KT 21/18 A3019 RMK A01 T02120183  RH  086%=      5-min Rain = 0
KNOR 091130Z 19002KT 21/19 A3019 RMK A01 T02110186  RH  088%=      5-min Rain = 0
KNOR 091135Z 19002KT 21/18 A3019 RMK A01 T02090184  RH  088%=      5-min Rain = 0
KNOR 091140Z 20001KT 21/18 A302 RMK A01 T02100183  RH  087%=      5-min Rain = 0
KNOR 091145Z 04002KT 21/19 A302 RMK A01 T02100186  RH  088%=      5-min Rain = 0
KNOR 091150Z 05005KT 21/18 A302 RMK A01 T02060183  RH  089%=      5-min Rain = 0
KNOR 091155Z 05004KT 21/18 A302 RMK A01 T02070184  RH  089%=      5-min Rain = 0
KNOR 091200Z 06004KT 21/18 A302 RMK A01 T02080184  RH  088%=      5-min Rain = 0
KNOR 091205Z 06003KT 21/18 A3021 RMK A01 T02100184  RH  087%=      5-min Rain = 0
KNOR 091210Z 01003KT 21/19 A3021 RMK A01 T02130186  RH  087%=      5-min Rain = 0
KNOR 091215Z 35003KT 21/19 A3021 RMK A01 T02120187  RH  088%=      5-min Rain = 0
KNOR 091220Z 00003KT 21/19 A3021 RMK A01 T02120188  RH  089%=      5-min Rain = 0
KNOR 091225Z 01002KT 21/19 A3022 RMK A01 T02140190  RH  088%=      5-min Rain = 0
KNOR 091230Z 00001KT 22/19 A3022 RMK A01 T02160189  RH  087%=      5-min Rain = 0
KNOR 091235Z 03002KT 22/19 A3022 RMK A01 T02170189  RH  086%=      5-min Rain = 0
KNOR 091240Z 04002KT 22/19 A3022 RMK A01 T02190189  RH  085%=      5-min Rain = 0
KNOR 091245Z 05002KT 22/19 A3022 RMK A01 T02230190  RH  084%=      5-min Rain = 0
KNOR 091250Z 07003KT 23/19 A3022 RMK A01 T02270188  RH  081%=      5-min Rain = 0
KNOR 091255Z 07003KT 23/19 A3022 RMK A01 T02310186  RH  078%=      5-min Rain = 0
KNOR 091300Z 07003KT 24/19 A3022 RMK A01 T02360186  RH  075%=      5-min Rain = 0
KNOR 091305Z 07002KT 24/19 A3022 RMK A01 T02400186  RH  074%=      5-min Rain = 0
KNOR 091310Z 07002KT 24/19 A3022 RMK A01 T02440187  RH  072%=      5-min Rain = 0
KNOR 091315Z 08001KT 25/19 A3022 RMK A01 T02480185  RH  070%=      5-min Rain = 0
KNOR 091320Z 10001KT 25/19 A3023 RMK A01 T02520186  RH  069%=      5-min Rain = 0
KNOR 091325Z 09001KT 26/19 A3023 RMK A01 T02570186  RH  066%=      5-min Rain = 0
KNOR 091330Z 02001KT 26/19 A3023 RMK A01 T02590185  RH  065%=      5-min Rain = 0
KNOR 091335Z 04002KT 26/19 A3023 RMK A01 T02600188  RH  066%=      5-min Rain = 0
KNOR 091340Z 03003KT 26/19 A3023 RMK A01 T02560188  RH  068%=      5-min Rain = 0
KNOR 091345Z 05003KT 26/19 A3023 RMK A01 T02580187  RH  066%=      5-min Rain = 0
KNOR 091350Z 06003KT 26/19 A3023 RMK A01 T02590188  RH  067%=      5-min Rain = 0
KNOR 091355Z 06002KT 26/19 A3023 RMK A01 T02610188  RH  066%=      5-min Rain = 0
KNOR 091400Z 04002KT 26/19 A3023 RMK A01 T02630187  RH  065%=      5-min Rain = 0
KNOR 091405Z 04002KT 27/19 A3023 RMK A01 T02660187  RH  064%=      5-min Rain = 0
KNOR 091410Z 05002KT 27/19 A3024 RMK A01 T02680188  RH  063%=      5-min Rain = 0
KNOR 091415Z 04002KT 27/19 A3024 RMK A01 T02700188  RH  063%=      5-min Rain = 0
KNOR 091420Z 03002KT 27/19 A3024 RMK A01 T02730191  RH  063%=      5-min Rain = 0
KNOR 091425Z 05002KT 28/19 A3024 RMK A01 T02760190  RH  061%=      5-min Rain = 0
KNOR 091430Z 05002KT 28/19 A3024 RMK A01 T02770187  RH  059%=      5-min Rain = 0
KNOR 091435Z 02002KT 28/19 A3024 RMK A01 T02800186  RH  058%=      5-min Rain = 0
KNOR 091440Z 35002KT 28/18 A3024 RMK A01 T02800182  RH  057%=      5-min Rain = 0
KNOR 091445Z 36001KT 28/18 A3024 RMK A01 T02760182  RH  058%=      5-min Rain = 0
KNOR 091450Z 07002KT 28/18 A3024 RMK A01 T02770183  RH  058%=      5-min Rain = 0
KNOR 091455Z 06002KT 28/18 A3024 RMK A01 T02800184  RH  057%=      5-min Rain = 0
KNOR 091500Z 05002KT 29/19 A3024 RMK A01 T02870186  RH  056%=      5-min Rain = 0
KNOR 091505Z 04002KT 29/18 A3024 RMK A01 T02860180  RH  054%=      5-min Rain = 0
KNOR 091510Z 04002KT 29/18 A3024 RMK A01 T02880180  RH  053%=      5-min Rain = 0
KNOR 091515Z 08003KT 29/18 A3024 RMK A01 T02910180  RH  052%=      5-min Rain = 0
KNOR 091520Z 12001KT 30/18 A3024 RMK A01 T02950179  RH  051%=      5-min Rain = 0
KNOR 091525Z 10002KT 30/18 A3023 RMK A01 T02970180  RH  051%=      5-min Rain = 0
KNOR 091530Z 12005KT 30/18 A3023 RMK A01 T02990179  RH  050%=      5-min Rain = 0
KNOR 091535Z 14004KT 30/17 A3023 RMK A01 T02980173  RH  048%=      5-min Rain = 0
KNOR 091540Z 12003KT 30/18 A3024 RMK A01 T03020178  RH  049%=      5-min Rain = 0
KNOR 091545Z 17004KT 30/18 A3023 RMK A01 T03010175  RH  048%=      5-min Rain = 0
KNOR 091550Z 13004G9KT 30/18 A3023 RMK A01 T03030180  RH  049%=      5-min Rain = 0
KNOR 091555Z 10004KT 30/18 A3023 RMK A01 T03030179  RH  049%=      5-min Rain = 0
KNOR 091600Z 11003KT 31/18 A3023 RMK A01 T03050179  RH  048%=      5-min Rain = 0
KNOR 091605Z 14005KT 31/18 A3023 RMK A01 T03070176  RH  047%=      5-min Rain = 0
KNOR 091610Z 16005KT 30/17 A3023 RMK A01 T03030173  RH  047%=      5-min Rain = 0
KNOR 091615Z 13002KT 31/18 A3023 RMK A01 T03070175  RH  046%=      5-min Rain = 0
KNOR 091620Z 12004G9KT 31/18 A3023 RMK A01 T03080180  RH  047%=      5-min Rain = 0
KNOR 091625Z 08004KT 30/18 A3023 RMK A01 T03030175  RH  047%=      5-min Rain = 0
KNOR 091630Z 10004KT 31/18 A3023 RMK A01 T03050175  RH  047%=      5-min Rain = 0
KNOR 091635Z 10004G9KT 31/18 A3023 RMK A01 T03070177  RH  047%=      5-min Rain = 0
KNOR 091640Z 11004G9KT 31/18 A3023 RMK A01 T03120177  RH  046%=      5-min Rain = 0
KNOR 091645Z 13004KT 31/18 A3023 RMK A01 T03100179  RH  047%=      5-min Rain = 0
KNOR 091650Z 04002KT 30/18 A3023 RMK A01 T03020176  RH  048%=      5-min Rain = 0
KNOR 091655Z 07005KT 30/18 A3023 RMK A01 T02990178  RH  049%=      5-min Rain = 0
KNOR 091700Z 09003KT 31/18 A3023 RMK A01 T03120180  RH  046%=      5-min Rain = 0
KNOR 091705Z 13004KT 32/17 A3023 RMK A01 T03210174  RH  043%=      5-min Rain = 0
KNOR 091710Z 13005KT 32/17 A3023 RMK A01 T03180171  RH  042%=      5-min Rain = 0
KNOR 091715Z 10007KT 31/17 A3023 RMK A01 T03090168  RH  044%=      5-min Rain = 0
KNOR 091720Z 07004KT 31/17 A3022 RMK A01 T03080165  RH  043%=      5-min Rain = 0
KNOR 091725Z 13005KT 32/17 A3022 RMK A01 T03170169  RH  042%=      5-min Rain = 0
KNOR 091730Z 09006G11KT 32/17 A3022 RMK A01 T03210171  RH  042%=      5-min Rain = 0
KNOR 091735Z 10006KT 32/17 A3022 RMK A01 T03200167  RH  041%=      5-min Rain = 0
KNOR 091740Z 12006G11KT 32/16 A3022 RMK A01 T03180162  RH  040%=      5-min Rain = 0
KNOR 091745Z 10004G10KT 32/16 A3022 RMK A01 T03220164  RH  040%=      5-min Rain = 0
KNOR 091750Z 10007G12KT 32/16 A3022 RMK A01 T03210160  RH  039%=      5-min Rain = 0
KNOR 091755Z 13007G12KT 32/16 A3022 RMK A01 T03200160  RH  039%=      5-min Rain = 0
KNOR 091800Z 10006G11KT 32/16 A3022 RMK A01 T03220162  RH  039%=      5-min Rain = 0
KNOR 091805Z 09007G14KT 33/17 A3022 RMK A01 T03250165  RH  039%=      5-min Rain = 0
KNOR 091810Z 10007G12KT 32/16 A3022 RMK A01 T03220159  RH  038%=      5-min Rain = 0
KNOR 091815Z 10004KT 33/16 A3021 RMK A01 T03270155  RH  036%=      5-min Rain = 0
KNOR 091820Z 09005G10KT 33/16 A3021 RMK A01 T03260162  RH  038%=      5-min Rain = 0
KNOR 091825Z 06007KT 31/16 A3021 RMK A01 T03120159  RH  041%=      5-min Rain = 0
KNOR 091830Z 07007G16KT 33/15 A3021 RMK A01 T03250154  RH  037%=      5-min Rain = 0
KNOR 091835Z 09007G12KT 32/16 A302 RMK A01 T03240157  RH  037%=      5-min Rain = 0
KNOR 091840Z 12007KT 33/16 A302 RMK A01 T03250163  RH  039%=      5-min Rain = 0
KNOR 091845Z 08005KT 33/16 A302 RMK A01 T03260164  RH  039%=      5-min Rain = 0
KNOR 091850Z 11005KT 32/16 A3019 RMK A01 T03150155  RH  039%=      5-min Rain = 0
KNOR 091855Z 08006KT 32/16 A3019 RMK A01 T03170157  RH  039%=      5-min Rain = 0
KNOR 091900Z 07009KT 32/16 A3019 RMK A01 T03240155  RH  037%=      5-min Rain = 0
KNOR 091905Z 07005KT 33/15 A3018 RMK A01 T03270153  RH  036%=      5-min Rain = 0
KNOR 091910Z 09003G9KT 33/15 A3018 RMK A01 T03290148  RH  034%=      5-min Rain = 0
KNOR 091915Z 06007KT 33/15 A3018 RMK A01 T03250153  RH  036%=      5-min Rain = 0
KNOR 091920Z 08007G14KT 32/15 A3018 RMK A01 T03170153  RH  038%=      5-min Rain = 0
KNOR 091925Z 08005G14KT 33/15 A3017 RMK A01 T03280153  RH  036%=      5-min Rain = 0
KNOR 091930Z 08012G17KT 33/15 A3017 RMK A01 T03290148  RH  034%=      5-min Rain = 0
KNOR 091935Z 06010KT 33/15 A3017 RMK A01 T03300145  RH  033%=      5-min Rain = 0
KNOR 091940Z 05009G15KT 33/14 A3017 RMK A01 T03320144  RH  033%=      5-min Rain = 0
KNOR 091945Z 08008KT 33/15 A3016 RMK A01 T03340149  RH  034%=      5-min Rain = 0
KNOR 091950Z 10007KT 34/15 A3016 RMK A01 T03350145  RH  033%=      5-min Rain = 0
KNOR 091955Z 06003G10KT 33/14 A3016 RMK A01 T03340141  RH  032%=      5-min Rain = 0
KNOR 092000Z 08008G13KT 33/14 A3016 RMK A01 T03310141  RH  032%=      5-min Rain = 0
KNOR 092005Z 07006KT 32/14 A3016 RMK A01 T03220139  RH  034%=      5-min Rain = 0
KNOR 092010Z 11002G7KT 34/14 A3016 RMK A01 T03370140  RH  031%=      5-min Rain = 0
KNOR 092015Z 09004G9KT 34/14 A3016 RMK A01 T03380139  RH  031%=      5-min Rain = 0
KNOR 092020Z 08008G13KT 34/14 A3016 RMK A01 T03380138  RH  031%=      5-min Rain = 0
KNOR 092025Z 06007KT 33/14 A3016 RMK A01 T03250135  RH  032%=      5-min Rain = 0
KNOR 092030Z 08007G12KT 33/13 A3016 RMK A01 T03280133  RH  031%=      5-min Rain = 0
KNOR 092035Z 06007KT 34/13 A3015 RMK A01 T03380133  RH  030%=      5-min Rain = 0
KNOR 092040Z 09006KT 34/13 A3015 RMK A01 T03390132  RH  029%=      5-min Rain = 0
KNOR 092045Z 07009G14KT 34/13 A3015 RMK A01 T03430134  RH  029%=      5-min Rain = 0
KNOR 092050Z 06008G15KT 34/13 A3015 RMK A01 T03410133  RH  029%=      5-min Rain = 0
KNOR 092055Z 10007G12KT 35/14 A3015 RMK A01 T03450136  RH  029%=      5-min Rain = 0
KNOR 092100Z 10004KT 35/13 A3015 RMK A01 T03460132  RH  028%=      5-min Rain = 0
KNOR 092105Z 08005KT 35/13 A3015 RMK A01 T03450127  RH  027%=      5-min Rain = 0
KNOR 092110Z 09008G15KT 34/13 A3015 RMK A01 T03440132  RH  028%=      5-min Rain = 0
KNOR 092115Z 11008G13KT 34/13 A3015 RMK A01 T03410128  RH  028%=      5-min Rain = 0
KNOR 092120Z 09007G12KT 34/12 A3015 RMK A01 T03430124  RH  027%=      5-min Rain = 0
KNOR 092125Z 07008G15KT 34/13 A3015 RMK A01 T03440128  RH  028%=      5-min Rain = 0
KNOR 092130Z 07009G14KT 34/13 A3015 RMK A01 T03390128  RH  028%=      5-min Rain = 0
KNOR 092135Z 09009KT 33/12 A3015 RMK A01 T03290124  RH  029%=      5-min Rain = 0
KNOR 092140Z 11008KT 33/12 A3014 RMK A01 T03250122  RH  030%=      5-min Rain = 0
KNOR 092145Z 11005G10KT 33/13 A3014 RMK A01 T03340125  RH  029%=      5-min Rain = 0
KNOR 092150Z 09006KT 34/13 A3014 RMK A01 T03440129  RH  028%=      5-min Rain = 0
KNOR 092155Z 08007KT 35/13 A3014 RMK A01 T03480129  RH  027%=      5-min Rain = 0
KNOR 092200Z 07007KT 35/13 A3014 RMK A01 T03460128  RH  027%=      5-min Rain = 0
KNOR 092205Z 06005KT 35/12 A3013 RMK A01 T03450122  RH  026%=      5-min Rain = 0
KNOR 092210Z 12006KT 34/12 A3013 RMK A01 T03430115  RH  026%=      5-min Rain = 0
KNOR 092215Z 09008G16KT 35/13 A3013 RMK A01 T03460126  RH  027%=      5-min Rain = 0
KNOR 092220Z 10010G15KT 34/12 A3013 RMK A01 T03430122  RH  027%=      5-min Rain = 0
KNOR 092225Z 10008KT 34/12 A3013 RMK A01 T03430124  RH  027%=      5-min Rain = 0
KNOR 092230Z 09007KT 34/12 A3013 RMK A01 T03430121  RH  027%=      5-min Rain = 0
KNOR 092235Z 11006KT 34/12 A3013 RMK A01 T03440120  RH  026%=      5-min Rain = 0
KNOR 092240Z 08006G15KT 34/13 A3013 RMK A01 T03440126  RH  027%=      5-min Rain = 0
KNOR 092245Z 08009KT 35/13 A3013 RMK A01 T03450128  RH  028%=      5-min Rain = 0
KNOR 092250Z 09008G14KT 34/12 A3013 RMK A01 T03350121  RH  028%=      5-min Rain = 0
KNOR 092255Z 10009KT 34/12 A3013 RMK A01 T03390119  RH  027%=      5-min Rain = 0
KNOR 092300Z 07006G12KT 34/12 A3013 RMK A01 T03430124  RH  027%=      5-min Rain = 0
KNOR 092305Z 09007KT 34/12 A3013 RMK A01 T03420124  RH  027%=      5-min Rain = 0
KNOR 092310Z 07007G12KT 34/13 A3013 RMK A01 T03420125  RH  027%=      5-min Rain = 0
KNOR 092315Z 08009KT 34/12 A3013 RMK A01 T03400122  RH  027%=      5-min Rain = 0
KNOR 092320Z 08006KT 34/12 A3013 RMK A01 T03400122  RH  027%=      5-min Rain = 0
KNOR 092325Z 07007KT 34/12 A3013 RMK A01 T03400121  RH  027%=      5-min Rain = 0
KNOR 092330Z 08006KT 34/12 A3013 RMK A01 T03400116  RH  026%=      5-min Rain = 0
KNOR 092335Z 09004KT 34/12 A3013 RMK A01 T03410117  RH  026%=      5-min Rain = 0
KNOR 092340Z 10006G11KT 34/12 A3013 RMK A01 T03410122  RH  027%=      5-min Rain = 0
KNOR 092345Z 10005KT 34/12 A3012 RMK A01 T03400122  RH  027%=      5-min Rain = 0
KNOR 092350Z 11005G11KT 34/12 A3012 RMK A01 T03400119  RH  027%=      5-min Rain = 0
KNOR 092355Z 12008KT 34/12 A3012 RMK A01 T03380115  RH  026%=      5-min Rain = 0
KNOR 100000Z 12006KT 34/12 A3012 RMK A01 T03380119  RH  027%=      5-min Rain = 0
KNOR 100005Z 11005KT 34/12 A3012 RMK A01 T03390120  RH  027%=      5-min Rain = 0
KNOR 100010Z 09005G10KT 34/12 A3012 RMK A01 T03380120  RH  027%=      5-min Rain = 0
KNOR 100015Z 09006G12KT 34/12 A3012 RMK A01 T03370123  RH  028%=      5-min Rain = 0
KNOR 100020Z 11010KT 33/12 A3012 RMK A01 T03330116  RH  027%=      5-min Rain = 0
KNOR 100025Z 11008KT 33/12 A3012 RMK A01 T03320115  RH  027%=      5-min Rain = 0
KNOR 100030Z 10006KT 33/11 A3012 RMK A01 T03320113  RH  027%=      5-min Rain = 0
KNOR 100035Z 11006G11KT 33/12 A3013 RMK A01 T03310117  RH  028%=      5-min Rain = 0
KNOR 100040Z 12006KT 33/12 A3013 RMK A01 T03300122  RH  029%=      5-min Rain = 0
KNOR 100045Z 11005KT 33/12 A3013 RMK A01 T03290124  RH  029%=      5-min Rain = 0
KNOR 100050Z 10006KT 33/12 A3013 RMK A01 T03280118  RH  028%=      5-min Rain = 0
KNOR 100055Z 11006KT 33/12 A3013 RMK A01 T03270118  RH  028%=      5-min Rain = 0
KNOR 100100Z 11005KT 33/12 A3013 RMK A01 T03250117  RH  029%=      5-min Rain = 0
KNOR 100105Z 11006KT 32/12 A3013 RMK A01 T03230120  RH  029%=      5-min Rain = 0
KNOR 100110Z 10005KT 32/12 A3013 RMK A01 T03210118  RH  029%=      5-min Rain = 0
KNOR 100115Z 10006KT 32/12 A3013 RMK A01 T03200116  RH  029%=      5-min Rain = 0
KNOR 100120Z 10004KT 32/12 A3013 RMK A01 T03170121  RH  031%=      5-min Rain = 0
KNOR 100125Z 09005KT 32/13 A3013 RMK A01 T03160127  RH  032%=      5-min Rain = 0
KNOR 100130Z 09006KT 31/13 A3014 RMK A01 T03140130  RH  033%=      5-min Rain = 0
KNOR 100135Z 08006KT 31/13 A3014 RMK A01 T03110130  RH  034%=      5-min Rain = 0
KNOR 100140Z 08005KT 31/13 A3014 RMK A01 T03080130  RH  034%=      5-min Rain = 0
KNOR 100145Z 09005KT 30/13 A3014 RMK A01 T03040131  RH  035%=      5-min Rain = 0
KNOR 100150Z 09004KT 30/13 A3014 RMK A01 T03010130  RH  036%=      5-min Rain = 0
KNOR 100155Z 09005KT 30/13 A3014 RMK A01 T02970131  RH  037%=      5-min Rain = 0
KNOR 100200Z 09004KT 29/13 A3014 RMK A01 T02940131  RH  037%=      5-min Rain = 0
KNOR 100205Z 09005KT 29/13 A3014 RMK A01 T02920132  RH  038%=      5-min Rain = 0
KNOR 100210Z 10005KT 29/13 A3014 RMK A01 T02880133  RH  039%=      5-min Rain = 0
KNOR 100215Z 09005KT 29/13 A3014 RMK A01 T02860134  RH  040%=      5-min Rain = 0
KNOR 100220Z 09005KT 28/13 A3014 RMK A01 T02840134  RH  041%=      5-min Rain = 0
KNOR 100225Z 09005KT 28/14 A3015 RMK A01 T02840135  RH  041%=      5-min Rain = 0
KNOR 100230Z 09005KT 28/14 A3015 RMK A01 T02830136  RH  041%=      5-min Rain = 0
KNOR 100235Z 09005KT 28/14 A3015 RMK A01 T02820136  RH  042%=      5-min Rain = 0
KNOR 100240Z 10005KT 28/14 A3015 RMK A01 T02800136  RH  042%=      5-min Rain = 0
KNOR 100245Z 09005KT 28/14 A3015 RMK A01 T02790136  RH  042%=      5-min Rain = 0
KNOR 100250Z 09005KT 28/14 A3015 RMK A01 T02780137  RH  043%=      5-min Rain = 0
KNOR 100255Z 09005KT 28/14 A3015 RMK A01 T02770137  RH  043%=      5-min Rain = 0
KNOR 100300Z 09005KT 28/14 A3016 RMK A01 T02750137  RH  044%=      5-min Rain = 0
KNOR 100305Z 09005KT 27/14 A3016 RMK A01 T02740138  RH  044%=      5-min Rain = 0
KNOR 100310Z 10005KT 27/14 A3016 RMK A01 T02730138  RH  044%=      5-min Rain = 0
KNOR 100315Z 10005KT 27/14 A3016 RMK A01 T02710139  RH  045%=      5-min Rain = 0
KNOR 100320Z 10005KT 27/14 A3016 RMK A01 T02710139  RH  045%=      5-min Rain = 0
KNOR 100325Z 12007KT 27/14 A3016 RMK A01 T02670141  RH  047%=      5-min Rain = 0
KNOR 100330Z 12008KT 27/14 A3017 RMK A01 T02660142  RH  047%=      5-min Rain = 0
KNOR 100335Z 13008KT 27/14 A3017 RMK A01 T02650144  RH  049%=      5-min Rain = 0
KNOR 100340Z 14008KT 26/15 A3017 RMK A01 T02640149  RH  050%=      5-min Rain = 0
KNOR 100345Z 15009KT 27/16 A3017 RMK A01 T02670155  RH  052%=      5-min Rain = 0
KNOR 100350Z 15008KT 27/16 A3017 RMK A01 T02690156  RH  051%=      5-min Rain = 0
KNOR 100355Z 16008KT 27/16 A3017 RMK A01 T02650157  RH  053%=      5-min Rain = 0
KNOR 100400Z 16008KT 26/16 A3017 RMK A01 T02610159  RH  054%=      5-min Rain = 0
KNOR 100405Z 15009KT 27/16 A3017 RMK A01 T02660162  RH  054%=      5-min Rain = 0
KNOR 100410Z 15009KT 27/16 A3017 RMK A01 T02660163  RH  055%=      5-min Rain = 0
KNOR 100415Z 15009KT 26/16 A3017 RMK A01 T02630164  RH  056%=      5-min Rain = 0
KNOR 100420Z 16009KT 27/17 A3017 RMK A01 T02650168  RH  056%=      5-min Rain = 0
KNOR 100425Z 17007KT 26/17 A3017 RMK A01 T02630168  RH  057%=      5-min Rain = 0
KNOR 100430Z 17007KT 26/17 A3018 RMK A01 T02610169  RH  058%=      5-min Rain = 0
KNOR 100435Z 17008KT 26/17 A3018 RMK A01 T02600170  RH  059%=      5-min Rain = 0
KNOR 100440Z 16007KT 26/17 A3018 RMK A01 T02590171  RH  060%=      5-min Rain = 0
KNOR 100445Z 15007KT 26/17 A3018 RMK A01 T02560170  RH  060%=      5-min Rain = 0
KNOR 100450Z 15007KT 26/17 A3018 RMK A01 T02550170  RH  061%=      5-min Rain = 0
KNOR 100455Z 16008KT 26/17 A3018 RMK A01 T02560171  RH  061%=      5-min Rain = 0

Page generated in 0.0466 seconds.